Giulia I — 9HA3585 — position and weather

sailwx.info

Track history (hours):
 
Tides and Currents Weather Stations Pressure Air Temp Water Temp Dewpoint Dewpoint Depression Visibility Wind Speed Wind Dir Waves Ship Positions

Giulia I

Last reported at 2018-Jun-08 12:08 UTC. Time now 2018-Jun-19 01:25 UTC.
Position N 38°36' E 120°55'.
Warning: this ship's position is 10 days out of date.

Length 177 m; draft 10.2 m.

Type: Cargo ship. MMSI: 229760000.

Date/timePositionNaut miles runAvg speedWind from/ knotsBaromVisibWave heightAir tempDewpointWater temp
2018-Jun-08 12:08N 38°36' E 120°55'212.7
2018-Jun-08 11:58N 38°35' E 120°57'613.0
2018-Jun-08 11:30N 38°32' E 121°04'612.9
2018-Jun-08 11:00N 38°29' E 121°11'912.8
2018-Jun-08 10:18N 38°25' E 121°21'412.6
2018-Jun-08 09:58N 38°22' E 121°26'612.4
2018-Jun-08 09:30N 38°20' E 121°32'611.8
2018-Jun-08 09:00N 38°17' E 121°39'611.7
2018-Jun-08 08:30N 38°14' E 121°45'1812.8
2018-Jun-08 07:04N 38°05' E 122°05'212.9
2018-Jun-08 06:53N 38°04' E 122°08'6911.8
2018-Jun-08 01:02N 37°22' E 123°18'  
Track history (hours):
 
Tides and Currents Weather Stations Pressure Air Temp Water Temp Dewpoint Dewpoint Depression Visibility Wind Speed Wind Dir Waves Ship Positions

Giulia I

Last reported at 2018-Jun-08 12:08 UTC. Time now 2018-Jun-19 01:25 UTC.
Position N 38°36' E 120°55'.
Warning: this ship's position is 10 days out of date.

Length 177 m; draft 10.2 m.

Type: Cargo ship. MMSI: 229760000.

Date/timePositionNaut miles runAvg speedWind from/ knotsBaromVisibWave heightAir tempDewpointWater temp
2018-Jun-08 12:08N 38°36' E 120°55'212.7
2018-Jun-08 11:58N 38°35' E 120°57'613.0
2018-Jun-08 11:30N 38°32' E 121°04'612.9
2018-Jun-08 11:00N 38°29' E 121°11'912.8
2018-Jun-08 10:18N 38°25' E 121°21'412.6
2018-Jun-08 09:58N 38°22' E 121°26'612.4
2018-Jun-08 09:30N 38°20' E 121°32'611.8
2018-Jun-08 09:00N 38°17' E 121°39'611.7
2018-Jun-08 08:30N 38°14' E 121°45'1812.8
2018-Jun-08 07:04N 38°05' E 122°05'212.9
2018-Jun-08 06:53N 38°04' E 122°08'6911.8
2018-Jun-08 01:02N 37°22' E 123°18'  

Dump ship's entire track history